createdAt,value
2023-02-26T00:00:53.659Z,2.02
2023-02-26T00:06:00.488Z,2.18
2023-02-26T00:11:02.350Z,2.11
2023-02-26T00:16:11.041Z,2.13
2023-02-26T00:21:20.391Z,2.02
2023-02-26T00:26:23.953Z,1.88
2023-02-26T00:31:26.097Z,1.73
2023-02-26T00:36:45.775Z,1.79
2023-02-26T00:41:47.491Z,1.86
2023-02-26T00:47:05.780Z,1.85
2023-02-26T00:52:19.242Z,1.88
2023-02-26T00:57:21.074Z,1.96
2023-02-26T01:02:22.847Z,1.87
2023-02-26T01:07:25.392Z,1.79
2023-02-26T01:12:27.214Z,1.65
2023-02-26T01:17:35.771Z,1.59
2023-02-26T01:22:52.086Z,1.51
2023-02-26T01:27:56.818Z,1.47
2023-02-26T01:33:20.260Z,1.46
2023-02-26T01:38:36.886Z,1.47
2023-02-26T01:44:03.293Z,1.33
2023-02-26T01:49:12.151Z,1.23
2023-02-26T01:54:14.819Z,1.35
2023-02-26T01:59:24.164Z,1.47
2023-02-26T02:04:26.827Z,1.47
2023-02-26T02:09:28.642Z,1.45
2023-02-26T02:15:00.747Z,1.40
2023-02-26T02:20:35.800Z,1.33
2023-02-26T02:26:14.558Z,1.29
2023-02-26T02:31:19.168Z,1.17
2023-02-26T02:36:34.377Z,1.11
2023-02-26T02:41:43.126Z,1.03
2023-02-26T02:46:48.738Z,1.05
2023-02-26T02:52:03.483Z,1.06
2023-02-26T02:57:24.252Z,1.13
2023-02-26T03:02:36.473Z,1.20
2023-02-26T03:07:46.698Z,1.33
2023-02-26T03:12:48.335Z,1.44
2023-02-26T03:18:05.177Z,1.47
2023-02-26T03:23:14.363Z,1.52
2023-02-26T03:28:44.916Z,1.55
2023-02-26T03:34:08.833Z,1.52
2023-02-26T03:39:20.254Z,1.48
2023-02-26T03:44:27.441Z,1.40
2023-02-26T03:49:38.888Z,1.37
2023-02-26T03:54:46.237Z,1.37
2023-02-26T03:59:47.812Z,1.38
2023-02-26T04:04:56.227Z,1.47
2023-02-26T04:09:57.775Z,1.28
2023-02-26T04:14:59.650Z,1.25
2023-02-26T04:20:01.159Z,1.23
2023-02-26T04:25:02.666Z,1.18
2023-02-26T04:30:04.460Z,1.21
2023-02-26T04:35:06.027Z,1.31
2023-02-26T04:40:07.950Z,1.35
2023-02-26T04:45:09.820Z,1.27
2023-02-26T04:50:11.895Z,1.18
2023-02-26T04:55:13.429Z,1.06
2023-02-26T05:00:15.931Z,0.98
2023-02-26T05:05:17.761Z,1.10
2023-02-26T05:10:19.748Z,1.15
2023-02-26T05:15:21.235Z,1.23
2023-02-26T05:20:22.762Z,1.23
2023-02-26T05:25:24.420Z,1.11
2023-02-26T05:30:25.941Z,1.07
2023-02-26T05:35:27.508Z,1.01
2023-02-26T05:40:29.009Z,1.13
2023-02-26T05:45:30.539Z,1.18
2023-02-26T05:50:32.020Z,1.26
2023-02-26T05:55:33.503Z,1.22
2023-02-26T06:00:35.065Z,1.04
2023-02-26T06:05:37.184Z,0.95
2023-02-26T06:10:38.761Z,0.92
2023-02-26T06:15:40.268Z,0.87
2023-02-26T06:20:41.800Z,0.86
2023-02-26T06:25:43.348Z,0.89
2023-02-26T06:30:45.163Z,0.76
2023-02-26T06:35:47.076Z,0.78
2023-02-26T06:40:48.602Z,0.71
2023-02-26T06:45:50.203Z,0.77
2023-02-26T06:50:52.412Z,0.82
2023-02-26T06:55:53.933Z,0.82
2023-02-26T07:00:55.546Z,0.80
2023-02-26T07:06:03.516Z,0.76
2023-02-26T07:11:11.769Z,0.75
2023-02-26T07:16:13.289Z,0.89
2023-02-26T07:21:14.940Z,0.97
2023-02-26T07:26:17.579Z,1.05
2023-02-26T07:31:19.176Z,1.12
2023-02-26T07:36:20.800Z,1.23
2023-02-26T07:41:22.508Z,1.37
2023-02-26T07:46:24.422Z,1.52
2023-02-26T07:51:26.574Z,1.80
2023-02-26T07:56:28.481Z,2.06
2023-02-26T08:01:30.152Z,1.95
2023-02-26T08:06:31.783Z,2.04
2023-02-26T08:11:36.545Z,2.44
2023-02-26T08:16:38.485Z,2.28
2023-02-26T08:21:40.446Z,2.28
2023-02-26T08:26:42.342Z,2.44
2023-02-26T08:31:44.252Z,2.38
2023-02-26T08:36:45.867Z,2.57
2023-02-26T08:41:47.352Z,2.63
2023-02-26T08:46:48.893Z,2.70
2023-02-26T08:51:50.427Z,2.61
2023-02-26T08:56:53.423Z,2.77
2023-02-26T09:01:54.970Z,2.81
2023-02-26T09:06:56.538Z,2.56
2023-02-26T09:11:58.987Z,2.67
2023-02-26T09:17:00.491Z,2.56
2023-02-26T09:22:02.037Z,2.65
2023-02-26T09:27:03.811Z,2.84
2023-02-26T09:32:08.489Z,3.10
2023-02-26T09:37:10.401Z,3.22
2023-02-26T09:42:49.342Z,3.21
2023-02-26T09:47:54.155Z,3.55
2023-02-26T09:53:03.132Z,3.90
2023-02-26T09:58:11.412Z,3.44
2023-02-26T10:03:29.893Z,3.71
2023-02-26T10:08:39.916Z,3.87
2023-02-26T10:13:57.696Z,4.00
2023-02-26T10:19:14.543Z,4.21
2023-02-26T10:24:23.178Z,4.04
2023-02-26T10:29:36.584Z,4.12
2023-02-26T10:34:45.187Z,4.36
2023-02-26T10:40:09.182Z,4.60
2023-02-26T10:45:27.801Z,4.36
2023-02-26T10:50:29.611Z,4.64
2023-02-26T10:55:50.115Z,4.23
2023-02-26T11:00:54.357Z,4.10
2023-02-26T11:05:56.846Z,4.34
2023-02-26T11:11:01.419Z,4.55
2023-02-26T11:16:06.429Z,4.95
2023-02-26T11:21:16.769Z,4.72
2023-02-26T11:26:25.624Z,4.95
2023-02-26T11:31:27.981Z,4.71
2023-02-26T11:36:31.842Z,4.71
2023-02-26T11:41:38.136Z,4.57
2023-02-26T11:46:46.430Z,4.63
2023-02-26T11:52:01.194Z,5.09
2023-02-26T11:57:06.445Z,5.03
2023-02-26T12:02:13.423Z,5.02
2023-02-26T12:07:16.808Z,5.24
2023-02-26T12:12:52.514Z,5.26
2023-02-26T12:18:09.225Z,5.19
2023-02-26T12:23:28.994Z,5.14
2023-02-26T12:29:08.316Z,5.47
2023-02-26T12:34:15.674Z,5.66
2023-02-26T12:39:50.716Z,5.25
2023-02-26T12:45:13.861Z,5.34
2023-02-26T12:50:30.448Z,5.16
2023-02-26T12:56:01.370Z,5.33
2023-02-26T13:01:28.334Z,5.22
2023-02-26T13:06:50.175Z,4.99
2023-02-26T13:12:28.463Z,5.00
2023-02-26T13:18:05.196Z,5.07
2023-02-26T13:23:13.995Z,5.07
2023-02-26T13:28:34.578Z,5.00
2023-02-26T13:33:37.606Z,4.99
2023-02-26T13:38:42.053Z,5.01
2023-02-26T13:43:49.482Z,5.07
2023-02-26T13:49:13.877Z,5.29
2023-02-26T13:54:21.669Z,5.25
2023-02-26T13:59:30.409Z,5.22
2023-02-26T14:04:49.103Z,5.00
2023-02-26T14:10:26.293Z,5.17
2023-02-26T14:15:39.449Z,5.15
2023-02-26T14:20:40.965Z,5.05
2023-02-26T14:25:53.236Z,5.01
2023-02-26T14:31:03.664Z,4.97
2023-02-26T14:36:10.162Z,4.91
2023-02-26T14:41:28.550Z,4.99
2023-02-26T14:46:30.883Z,5.09
2023-02-26T14:52:00.200Z,5.05
2023-02-26T14:57:07.794Z,5.01
2023-02-26T15:02:32.138Z,5.04
2023-02-26T15:07:58.446Z,5.01
2023-02-26T15:13:05.628Z,4.97
2023-02-26T15:18:39.497Z,5.00
2023-02-26T15:23:42.684Z,4.81
2023-02-26T15:28:44.815Z,4.68
2023-02-26T15:33:50.003Z,4.84
2023-02-26T15:38:57.473Z,4.89
2023-02-26T15:44:03.130Z,4.88
2023-02-26T15:49:13.672Z,4.74
2023-02-26T15:54:19.563Z,4.73
2023-02-26T15:59:25.471Z,4.62
2023-02-26T16:04:27.074Z,4.47
2023-02-26T16:09:35.992Z,4.25
2023-02-26T16:14:45.413Z,4.15
2023-02-26T16:19:50.441Z,4.14
2023-02-26T16:25:25.372Z,4.12
2023-02-26T16:30:33.637Z,4.09
2023-02-26T16:35:42.070Z,4.04
2023-02-26T16:40:44.942Z,3.95
2023-02-26T16:45:51.011Z,3.83
2023-02-26T16:51:02.316Z,3.64
2023-02-26T16:56:05.137Z,3.56
2023-02-26T17:01:14.872Z,3.64
2023-02-26T17:06:19.596Z,3.58
2023-02-26T17:11:30.427Z,3.52
2023-02-26T17:16:31.927Z,3.45
2023-02-26T17:21:36.201Z,3.36
2023-02-26T17:26:37.731Z,3.29
2023-02-26T17:31:43.555Z,3.20
2023-02-26T17:36:46.303Z,3.20
2023-02-26T17:41:47.857Z,3.15
2023-02-26T17:46:49.503Z,3.05
2023-02-26T17:51:53.955Z,3.00
2023-02-26T17:56:55.526Z,3.00
2023-02-26T18:01:58.016Z,3.05
2023-02-26T18:06:59.479Z,3.08
2023-02-26T18:12:00.948Z,3.11
2023-02-26T18:17:02.533Z,3.09
2023-02-26T18:22:04.326Z,3.09
2023-02-26T18:27:08.537Z,3.05
2023-02-26T18:32:18.569Z,3.06
2023-02-26T18:37:22.767Z,2.98
2023-02-26T18:42:27.147Z,2.96
2023-02-26T18:47:29.928Z,2.96
2023-02-26T18:52:31.809Z,2.96
2023-02-26T18:57:34.232Z,2.97
2023-02-26T19:02:35.984Z,2.95
2023-02-26T19:07:37.984Z,3.03
2023-02-26T19:12:39.613Z,3.15
2023-02-26T19:17:42.314Z,3.21
2023-02-26T19:22:45.636Z,3.17
2023-02-26T19:27:47.212Z,3.20
2023-02-26T19:32:49.795Z,3.17
2023-02-26T19:37:51.368Z,3.11
2023-02-26T19:42:52.879Z,3.14
2023-02-26T19:47:54.462Z,3.18
2023-02-26T19:52:56.196Z,3.28
2023-02-26T19:57:57.671Z,3.33
2023-02-26T20:02:59.247Z,3.38
2023-02-26T20:08:00.824Z,3.35
2023-02-26T20:13:02.534Z,3.39
2023-02-26T20:18:04.077Z,3.27
2023-02-26T20:23:05.558Z,3.31
2023-02-26T20:28:07.195Z,3.35
2023-02-26T20:33:08.839Z,3.31
2023-02-26T20:38:10.937Z,3.25
2023-02-26T20:43:12.467Z,3.31
2023-02-26T20:48:13.970Z,3.29
2023-02-26T20:53:15.623Z,3.28
2023-02-26T20:58:17.351Z,3.35
2023-02-26T21:03:18.816Z,3.33
2023-02-26T21:08:20.458Z,3.33
2023-02-26T21:13:22.048Z,3.23
2023-02-26T21:18:23.604Z,3.18
2023-02-26T21:23:25.155Z,3.16
2023-02-26T21:28:26.816Z,3.03
2023-02-26T21:33:28.341Z,3.12
2023-02-26T21:38:29.935Z,3.20
2023-02-26T21:43:31.431Z,3.27
2023-02-26T21:48:33.034Z,3.35
2023-02-26T21:53:34.544Z,3.28
2023-02-26T21:58:36.025Z,3.30
2023-02-26T22:03:38.211Z,3.30
2023-02-26T22:08:39.669Z,3.20
2023-02-26T22:13:41.198Z,3.26
2023-02-26T22:18:42.910Z,3.12
2023-02-26T22:23:44.559Z,3.06
2023-02-26T22:28:46.025Z,3.11
2023-02-26T22:33:47.570Z,3.09
2023-02-26T22:38:49.245Z,2.96
2023-02-26T22:43:53.585Z,2.96
2023-02-26T22:48:55.979Z,2.97
2023-02-26T22:53:57.616Z,2.92
2023-02-26T22:58:59.151Z,2.93
2023-02-26T23:04:00.797Z,2.95
2023-02-26T23:09:03.527Z,2.92
2023-02-26T23:14:05.044Z,2.91
2023-02-26T23:19:06.616Z,2.85
2023-02-26T23:24:08.170Z,2.84
2023-02-26T23:29:09.837Z,2.89
2023-02-26T23:34:11.363Z,2.83
2023-02-26T23:39:15.241Z,2.77
2023-02-26T23:44:16.758Z,2.72
2023-02-26T23:49:18.414Z,2.70
2023-02-26T23:54:19.948Z,2.70
2023-02-26T23:59:21.506Z,2.63
